createdAt,value
2023-10-28T00:01:24.117Z,3.20
2023-10-28T00:03:51.069Z,3.40
2023-10-28T00:06:17.890Z,3.92
2023-10-28T00:08:44.800Z,4.22
2023-10-28T00:11:11.609Z,3.90
2023-10-28T00:13:38.467Z,3.72
2023-10-28T00:16:06.805Z,3.03
2023-10-28T00:18:34.756Z,3.90
2023-10-28T00:21:01.666Z,3.40
2023-10-28T00:23:28.585Z,3.40
2023-10-28T00:26:04.969Z,3.80
2023-10-28T00:28:34.781Z,3.22
2023-10-28T00:33:31.032Z,3.08
2023-10-28T00:35:57.935Z,3.15
2023-10-28T00:38:24.820Z,3.45
2023-10-28T00:40:51.723Z,3.55
2023-10-28T00:43:25.400Z,3.17
2023-10-28T00:45:52.922Z,3.83
2023-10-28T00:48:20.239Z,4.15
2023-10-28T00:50:47.194Z,3.58
2023-10-28T00:53:14.329Z,2.85
2023-10-28T00:55:41.326Z,3.72
2023-10-28T00:58:11.125Z,3.15
2023-10-28T01:00:38.059Z,3.40
2023-10-28T01:03:05.077Z,3.38
2023-10-28T01:05:34.844Z,3.25
2023-10-28T01:08:01.959Z,3.22
2023-10-28T01:10:31.097Z,3.05
2023-10-28T01:12:59.800Z,3.13
2023-10-28T01:15:27.421Z,2.83
2023-10-28T01:17:54.572Z,3.03
2023-10-28T01:20:21.687Z,3.22
2023-10-28T01:22:48.674Z,3.17
2023-10-28T01:25:16.208Z,3.45
2023-10-28T01:27:44.731Z,3.47
2023-10-28T01:30:15.272Z,2.80
2023-10-28T01:32:43.961Z,3.13
2023-10-28T01:35:12.032Z,3.72
2023-10-28T01:37:39.166Z,3.50
2023-10-28T01:40:16.231Z,3.25
2023-10-28T01:42:45.576Z,2.85
2023-10-28T01:45:15.049Z,4.18
2023-10-28T01:47:43.642Z,3.50
2023-10-28T01:50:14.589Z,3.75
2023-10-28T01:52:43.613Z,4.20
2023-10-28T01:55:12.811Z,3.63
2023-10-28T01:57:40.597Z,4.72
2023-10-28T02:00:13.492Z,3.45
2023-10-28T02:02:44.332Z,4.05
2023-10-28T02:05:11.550Z,3.47
2023-10-28T02:07:39.605Z,3.80
2023-10-28T02:10:06.807Z,4.47
2023-10-28T02:12:35.794Z,3.80
2023-10-28T02:15:04.342Z,3.85
2023-10-28T02:17:31.337Z,3.35
2023-10-28T02:19:59.041Z,3.10
2023-10-28T02:22:26.206Z,4.15
2023-10-28T02:24:53.048Z,4.00
2023-10-28T02:27:19.939Z,3.95
2023-10-28T02:29:46.970Z,4.30
2023-10-28T02:32:14.891Z,4.50
2023-10-28T02:34:42.718Z,4.60
2023-10-28T02:37:11.944Z,3.88
2023-10-28T02:39:38.914Z,3.58
2023-10-28T02:42:06.072Z,5.47
2023-10-28T02:44:33.298Z,5.10
2023-10-28T02:47:00.719Z,5.00
2023-10-28T02:49:28.832Z,4.85
2023-10-28T02:51:55.788Z,4.57
2023-10-28T02:54:22.600Z,4.85
2023-10-28T02:56:49.512Z,5.60
2023-10-28T02:59:16.575Z,5.18
2023-10-28T03:01:43.576Z,5.47
2023-10-28T03:04:12.074Z,6.13
2023-10-28T03:06:39.303Z,5.20
2023-10-28T03:09:07.381Z,4.97
2023-10-28T03:11:35.095Z,4.05
2023-10-28T03:14:02.150Z,5.07
2023-10-28T03:16:29.280Z,4.75
2023-10-28T03:18:56.850Z,4.88
2023-10-28T04:29:18.246Z,2.97
2023-10-28T04:31:45.177Z,3.10
2023-10-28T04:34:12.134Z,3.55
2023-10-28T04:36:38.955Z,2.88
2023-10-28T04:39:06.396Z,2.95
2023-10-28T04:41:33.478Z,3.65
2023-10-28T04:44:03.027Z,3.65
2023-10-28T04:46:31.150Z,3.42
2023-10-28T04:48:58.862Z,3.90
2023-10-28T04:51:25.852Z,3.95
2023-10-28T04:53:53.142Z,3.95
2023-10-28T04:56:20.015Z,3.63
2023-10-28T04:58:46.893Z,4.72
2023-10-28T05:01:13.785Z,3.53
2023-10-28T05:03:40.677Z,3.85
2023-10-28T05:06:11.044Z,3.15
2023-10-28T05:08:38.242Z,3.58
2023-10-28T05:11:05.568Z,3.22
2023-10-28T05:13:32.431Z,3.88
2023-10-28T05:16:00.022Z,3.70
2023-10-28T05:18:27.384Z,4.72
2023-10-28T05:20:54.446Z,3.80
2023-10-28T05:23:21.399Z,4.68
2023-10-28T05:25:48.254Z,4.55
2023-10-28T05:28:15.083Z,4.60
2023-10-28T05:30:41.866Z,4.38
2023-10-28T05:33:08.788Z,3.92
2023-10-28T05:35:35.665Z,4.32
2023-10-28T05:38:02.592Z,4.18
2023-10-28T05:40:29.447Z,4.72
2023-10-28T05:42:56.424Z,5.20
2023-10-28T05:45:23.379Z,4.53
2023-10-28T05:47:50.306Z,4.90
2023-10-28T05:50:19.061Z,6.00
2023-10-28T05:52:46.082Z,4.93
2023-10-28T05:55:13.760Z,5.32
2023-10-28T05:57:41.426Z,5.25
2023-10-28T06:00:12.237Z,5.25
2023-10-28T06:02:39.759Z,6.05
2023-10-28T06:05:07.469Z,4.88
2023-10-28T06:07:34.646Z,5.15
2023-10-28T06:10:01.528Z,4.18
2023-10-28T06:12:28.389Z,6.30
2023-10-28T06:14:55.228Z,4.15
2023-10-28T06:17:22.250Z,4.47
2023-10-28T06:19:49.997Z,4.03
2023-10-28T06:22:16.926Z,5.05
2023-10-28T06:24:43.760Z,3.08
2023-10-28T06:27:10.669Z,3.20
2023-10-28T06:29:38.755Z,3.13
2023-10-28T06:32:08.052Z,2.95
2023-10-28T06:34:35.032Z,3.03
2023-10-28T06:37:02.000Z,3.47
2023-10-28T06:39:28.934Z,3.50
2023-10-28T06:41:55.779Z,3.97
2023-10-28T06:44:24.763Z,3.60
2023-10-28T06:46:51.603Z,2.65
2023-10-28T06:49:18.510Z,3.13
2023-10-28T06:51:46.452Z,3.50
2023-10-28T06:54:13.804Z,3.85
2023-10-28T06:56:40.633Z,4.55
2023-10-28T06:59:07.517Z,5.18
2023-10-28T07:01:35.376Z,2.65
2023-10-28T07:04:02.596Z,2.97
2023-10-28T07:06:29.464Z,2.58
2023-10-28T07:08:56.311Z,2.47
2023-10-28T07:11:23.558Z,2.55
2023-10-28T07:13:50.430Z,2.45
2023-10-28T07:16:19.660Z,2.03
2023-10-28T07:18:46.906Z,1.98
2023-10-28T07:21:14.938Z,2.60
2023-10-28T07:23:42.308Z,2.17
2023-10-28T07:26:09.403Z,1.83
2023-10-28T07:28:38.466Z,2.40
2023-10-28T07:31:07.249Z,1.88
2023-10-28T07:33:35.062Z,2.40
2023-10-28T07:36:05.550Z,3.28
2023-10-28T07:41:00.193Z,3.08
2023-10-28T07:43:27.984Z,2.80
2023-10-28T07:45:54.870Z,2.30
2023-10-28T07:48:22.084Z,2.38
2023-10-28T07:50:49.852Z,2.97
2023-10-28T07:53:18.436Z,2.03
2023-10-28T07:55:45.424Z,2.60
2023-10-28T07:58:12.274Z,2.85
2023-10-28T08:00:39.395Z,3.15
2023-10-28T08:03:06.517Z,2.42
2023-10-28T08:05:33.533Z,2.55
2023-10-28T08:08:00.887Z,2.13
2023-10-28T08:10:27.900Z,2.70
2023-10-28T08:12:55.839Z,2.45
2023-10-28T08:15:23.129Z,2.78
2023-10-28T08:17:51.918Z,2.38
2023-10-28T08:20:19.212Z,2.40
2023-10-28T08:22:46.757Z,2.30
2023-10-28T08:25:17.569Z,2.22
2023-10-28T08:27:45.884Z,2.78
2023-10-28T08:30:18.119Z,2.10
2023-10-28T08:32:46.295Z,2.40
2023-10-28T08:35:13.353Z,2.88
2023-10-28T08:37:40.552Z,2.08
2023-10-28T08:40:11.761Z,2.58
2023-10-28T08:42:39.541Z,3.20
2023-10-28T08:45:09.957Z,2.72
2023-10-28T08:47:40.028Z,2.97
2023-10-28T08:50:10.649Z,2.63
2023-10-28T08:52:39.157Z,3.42
2023-10-28T08:55:08.454Z,3.95
2023-10-28T08:57:36.771Z,2.90
2023-10-28T09:00:12.753Z,2.60
2023-10-28T09:02:43.160Z,2.95
2023-10-28T09:07:36.862Z,2.70
2023-10-28T09:10:05.812Z,2.70
2023-10-28T09:12:33.589Z,2.50
2023-10-28T09:15:00.489Z,2.47
2023-10-28T09:17:27.448Z,2.88
2023-10-28T09:19:54.360Z,2.42
2023-10-28T09:22:21.775Z,2.55
2023-10-28T09:24:51.254Z,2.90
2023-10-28T09:27:20.809Z,3.28
2023-10-28T09:29:47.778Z,2.90
2023-10-28T09:32:15.268Z,1.77
2023-10-28T09:34:42.616Z,3.40
2023-10-28T09:37:10.136Z,2.85
2023-10-28T09:39:37.849Z,3.15
2023-10-28T09:42:05.760Z,2.60
2023-10-28T09:44:35.518Z,2.65
2023-10-28T09:47:05.127Z,1.98
2023-10-28T09:49:32.970Z,1.83
2023-10-28T09:52:07.476Z,1.75
2023-10-28T09:54:37.531Z,1.35
2023-10-28T09:57:05.250Z,2.10
2023-10-28T09:59:38.880Z,1.88
2023-10-28T10:02:28.002Z,2.42
2023-10-28T10:05:16.403Z,1.60
2023-10-28T10:07:43.776Z,2.15
2023-10-28T10:10:14.937Z,1.38
2023-10-28T10:12:43.337Z,1.75
2023-10-28T10:15:16.291Z,1.55
2023-10-28T10:18:05.605Z,2.55
2023-10-28T10:20:34.609Z,2.38
2023-10-28T10:23:03.135Z,1.83
2023-10-28T10:25:42.530Z,1.98
2023-10-28T10:28:16.458Z,1.98
2023-10-28T10:30:45.343Z,2.40
2023-10-28T10:33:13.506Z,2.53
2023-10-28T10:35:46.917Z,1.90
2023-10-28T10:38:14.514Z,2.10
2023-10-28T10:40:54.008Z,2.00
2023-10-28T10:43:22.498Z,1.55
2023-10-28T10:45:52.736Z,1.88
2023-10-28T10:48:19.911Z,1.70
2023-10-28T10:50:47.559Z,2.28
2023-10-28T10:53:14.580Z,1.83
2023-10-28T10:55:41.674Z,1.52
2023-10-28T10:58:09.013Z,1.60
2023-10-28T11:00:36.121Z,1.15
2023-10-28T11:03:04.962Z,1.25
2023-10-28T11:05:32.554Z,1.77
2023-10-28T11:07:59.618Z,1.77
2023-10-28T11:10:27.155Z,1.40
2023-10-28T11:12:54.230Z,1.40
2023-10-28T11:15:24.016Z,2.20
2023-10-28T11:17:54.095Z,1.92
2023-10-28T11:20:21.937Z,1.75
2023-10-28T11:22:49.339Z,2.00
2023-10-28T11:25:16.738Z,1.65
2023-10-28T11:27:44.169Z,2.28
2023-10-28T11:30:11.838Z,1.63
2023-10-28T11:32:42.770Z,1.88
2023-10-28T11:35:12.873Z,1.83
2023-10-28T11:37:40.737Z,1.90
2023-10-28T11:40:10.294Z,1.80
2023-10-28T11:42:38.498Z,1.90
2023-10-28T11:45:10.893Z,1.70
2023-10-28T11:47:38.082Z,1.55
2023-10-28T11:50:08.791Z,1.80
2023-10-28T11:52:36.390Z,1.40
2023-10-28T11:55:06.483Z,2.30
2023-10-28T11:57:36.621Z,3.03
2023-10-28T12:00:05.999Z,2.00
2023-10-28T12:02:33.103Z,1.58
2023-10-28T12:04:59.969Z,1.85
2023-10-28T12:07:26.983Z,1.83
2023-10-28T12:09:53.841Z,1.73
2023-10-28T12:12:20.706Z,1.67
2023-10-28T12:14:48.929Z,2.75
2023-10-28T12:17:16.051Z,1.90
2023-10-28T12:19:42.890Z,2.03
2023-10-28T12:22:10.779Z,1.58
2023-10-28T12:24:37.706Z,1.70
2023-10-28T12:27:04.855Z,1.65
2023-10-28T12:29:31.737Z,1.70
2023-10-28T12:31:58.676Z,1.70
2023-10-28T12:34:25.632Z,1.55
2023-10-28T12:36:52.502Z,2.78
2023-10-28T12:39:19.582Z,1.45
2023-10-28T12:41:47.704Z,1.48
2023-10-28T12:44:14.710Z,1.30
2023-10-28T12:46:43.949Z,1.52
2023-10-28T12:49:10.812Z,1.50
2023-10-28T12:51:39.582Z,2.00
2023-10-28T12:54:08.011Z,1.65
2023-10-28T12:56:35.357Z,2.00
2023-10-28T12:59:02.200Z,1.50
2023-10-28T13:01:30.184Z,2.00
2023-10-28T13:04:00.054Z,1.42
2023-10-28T13:06:27.150Z,1.77
2023-10-28T13:08:54.280Z,1.80
2023-10-28T13:11:21.294Z,1.75
2023-10-28T13:13:48.156Z,1.48
2023-10-28T13:16:15.056Z,1.75
2023-10-28T13:18:42.819Z,1.65
2023-10-28T13:21:11.751Z,1.67
2023-10-28T13:23:38.556Z,1.83
2023-10-28T13:26:11.236Z,2.00
2023-10-28T13:28:38.750Z,1.45
2023-10-28T13:31:05.624Z,1.20
2023-10-28T13:33:35.366Z,2.05
2023-10-28T13:36:04.101Z,1.60
2023-10-28T13:38:31.021Z,1.65
2023-10-28T13:40:57.930Z,1.45
2023-10-28T13:43:24.759Z,1.83
2023-10-28T13:45:52.883Z,1.50
2023-10-28T13:48:19.911Z,1.73
2023-10-28T13:50:47.030Z,1.83
2023-10-28T13:53:14.080Z,1.75
2023-10-28T13:55:41.169Z,2.17
2023-10-28T13:58:08.020Z,1.70
2023-10-28T14:00:34.926Z,1.58
2023-10-28T14:03:03.285Z,1.92
2023-10-28T14:05:30.277Z,1.77
2023-10-28T14:07:58.826Z,1.70
2023-10-28T14:10:26.770Z,1.98
2023-10-28T14:12:54.723Z,2.50
2023-10-28T14:15:22.380Z,1.30
2023-10-28T14:17:49.268Z,2.03
2023-10-28T14:20:16.487Z,1.60
2023-10-28T14:22:43.362Z,1.75
2023-10-28T14:25:10.367Z,1.60
2023-10-28T14:27:37.734Z,1.35
2023-10-28T14:30:09.545Z,1.55
2023-10-28T14:32:39.544Z,2.15
2023-10-28T14:35:08.618Z,1.67
2023-10-28T14:37:37.952Z,2.55
2023-10-28T14:40:06.724Z,1.75
2023-10-28T14:42:40.059Z,1.52
2023-10-28T14:45:12.490Z,1.73
2023-10-28T14:47:40.727Z,2.45
2023-10-28T14:50:09.347Z,1.33
2023-10-28T14:52:38.008Z,1.65
2023-10-28T14:55:08.161Z,1.20
2023-10-28T14:57:36.965Z,2.45
2023-10-28T15:00:08.294Z,1.50
2023-10-28T15:02:35.487Z,1.48
2023-10-28T15:05:07.811Z,1.67
2023-10-28T15:07:34.821Z,1.33
2023-10-28T15:10:01.691Z,1.50
2023-10-28T15:12:28.516Z,1.40
2023-10-28T15:14:55.405Z,1.67
2023-10-28T15:17:22.484Z,1.23
2023-10-28T15:19:51.167Z,2.28
2023-10-28T15:22:18.303Z,2.25
2023-10-28T15:24:45.268Z,1.30
2023-10-28T15:27:12.303Z,1.80
2023-10-28T15:29:39.235Z,1.85
2023-10-28T15:32:06.551Z,1.40
2023-10-28T15:34:33.731Z,1.38
2023-10-28T15:37:00.679Z,2.17
2023-10-28T15:39:27.598Z,2.10
2023-10-28T15:41:54.417Z,1.90
2023-10-28T15:44:21.227Z,2.25
2023-10-28T15:46:48.556Z,2.30
2023-10-28T15:49:15.382Z,1.95
2023-10-28T15:51:42.192Z,1.27
2023-10-28T15:54:09.395Z,1.83
2023-10-28T15:56:36.223Z,1.80
2023-10-28T15:59:03.146Z,1.63
2023-10-28T16:01:30.908Z,1.85
2023-10-28T16:03:58.163Z,1.52
2023-10-28T16:06:25.745Z,1.40
2023-10-28T16:08:54.482Z,2.13
2023-10-28T16:11:21.400Z,1.17
2023-10-28T16:13:48.450Z,1.08
2023-10-28T16:16:15.453Z,1.23
2023-10-28T16:18:42.919Z,1.20
2023-10-28T16:21:10.333Z,1.13
2023-10-28T16:23:40.815Z,1.27
2023-10-28T16:26:08.010Z,1.58
2023-10-28T16:28:34.965Z,1.50
2023-10-28T16:31:07.897Z,3.63
2023-10-28T16:33:36.800Z,1.23
2023-10-28T16:36:04.153Z,1.55
2023-10-28T16:38:31.678Z,1.15
2023-10-28T16:40:59.510Z,1.50
2023-10-28T16:43:27.390Z,1.45
2023-10-28T16:46:15.580Z,1.63
2023-10-28T16:48:42.548Z,1.40
2023-10-28T16:51:16.367Z,1.40
2023-10-28T16:53:44.036Z,1.60
2023-10-28T16:56:14.124Z,1.58
2023-10-28T16:58:41.158Z,1.02
2023-10-28T17:01:09.525Z,1.20
2023-10-28T17:03:40.461Z,1.00
2023-10-28T17:06:07.637Z,1.40
2023-10-28T17:08:35.083Z,2.60
2023-10-28T17:11:03.688Z,1.42
2023-10-28T17:13:30.829Z,1.55
2023-10-28T17:16:00.650Z,1.45
2023-10-28T17:18:27.714Z,1.27
2023-10-28T17:20:54.728Z,1.38
2023-10-28T17:23:21.752Z,1.50
2023-10-28T17:25:48.634Z,1.85
2023-10-28T17:28:16.330Z,2.03
2023-10-28T17:30:43.583Z,1.90
2023-10-28T17:33:12.781Z,1.58
2023-10-28T17:35:43.330Z,1.63
2023-10-28T17:40:39.331Z,1.70
2023-10-28T17:43:06.287Z,1.60
2023-10-28T17:45:33.206Z,1.35
2023-10-28T17:48:03.153Z,1.30
2023-10-28T17:50:31.453Z,1.60
2023-10-28T17:52:58.393Z,0.70
2023-10-28T17:55:25.279Z,1.60
2023-10-28T17:57:52.294Z,1.52
2023-10-28T18:00:21.062Z,1.30
2023-10-28T18:02:48.391Z,2.08
2023-10-28T18:05:15.384Z,1.45
2023-10-28T18:07:42.673Z,1.40
2023-10-28T18:10:10.086Z,1.88
2023-10-28T18:12:37.033Z,1.45
2023-10-28T18:15:04.363Z,1.73
2023-10-28T18:17:31.307Z,1.83
2023-10-28T18:19:58.243Z,1.85
2023-10-28T18:22:25.909Z,1.95
2023-10-28T18:24:53.376Z,2.08
2023-10-28T18:27:20.346Z,2.80
2023-10-28T18:29:47.430Z,2.13
2023-10-28T18:32:15.237Z,2.00
2023-10-28T18:34:43.016Z,1.38
2023-10-28T18:37:10.512Z,1.13
2023-10-28T18:39:37.392Z,1.90
2023-10-28T18:42:04.644Z,1.33
2023-10-28T18:44:31.517Z,1.35
2023-10-28T18:47:10.080Z,1.88
2023-10-28T18:49:37.153Z,1.30
2023-10-28T18:52:05.509Z,1.35
2023-10-28T18:54:32.612Z,1.33
2023-10-28T18:56:59.616Z,1.52
2023-10-28T18:59:26.742Z,1.30
2023-10-28T19:01:53.637Z,1.20
2023-10-28T19:04:20.482Z,1.55
2023-10-28T19:06:47.320Z,1.83
2023-10-28T19:09:14.264Z,1.98
2023-10-28T19:11:41.707Z,1.80
2023-10-28T19:14:11.421Z,1.40
2023-10-28T19:16:38.424Z,1.80
2023-10-28T19:19:06.181Z,1.75
2023-10-28T19:21:33.102Z,1.40
2023-10-28T19:23:59.999Z,1.70
2023-10-28T19:26:26.941Z,1.70
2023-10-28T19:28:54.106Z,1.55
2023-10-28T19:31:21.308Z,1.42
2023-10-28T19:33:48.663Z,2.47
2023-10-28T19:36:15.572Z,2.00
2023-10-28T19:38:43.069Z,1.85
2023-10-28T19:41:10.435Z,1.30
2023-10-28T19:43:37.886Z,0.95
2023-10-28T19:46:09.066Z,1.25
2023-10-28T19:48:36.943Z,1.40
2023-10-28T19:51:06.324Z,0.98
2023-10-28T19:53:42.775Z,1.58
2023-10-28T19:56:11.458Z,1.88
2023-10-28T19:58:39.331Z,2.05
2023-10-28T20:01:07.058Z,1.17
2023-10-28T20:03:34.315Z,1.58
2023-10-28T20:06:01.295Z,1.40
2023-10-28T20:08:28.246Z,0.98
2023-10-28T20:10:55.189Z,1.75
2023-10-28T20:13:22.076Z,1.02
2023-10-28T20:15:48.975Z,1.30
2023-10-28T20:18:15.831Z,2.35
2023-10-28T20:20:42.781Z,1.55
2023-10-28T20:23:09.836Z,1.40
2023-10-28T20:25:36.679Z,1.30
2023-10-28T20:28:04.886Z,1.17
2023-10-28T20:30:32.785Z,1.35
2023-10-28T20:33:00.533Z,1.23
2023-10-28T20:35:27.562Z,1.05
2023-10-28T20:37:54.419Z,1.00
2023-10-28T20:40:21.506Z,1.25
2023-10-28T20:42:48.329Z,1.35
2023-10-28T20:45:18.836Z,1.80
2023-10-28T20:47:45.901Z,1.02
2023-10-28T20:50:12.823Z,0.88
2023-10-28T20:52:39.654Z,1.60
2023-10-28T20:55:06.731Z,1.42
2023-10-28T20:57:33.566Z,1.50
2023-10-28T21:00:00.435Z,1.70
2023-10-28T21:02:27.339Z,1.05
2023-10-28T21:04:54.184Z,1.20
2023-10-28T21:07:21.234Z,0.95
2023-10-28T21:09:49.123Z,1.00
2023-10-28T21:12:16.014Z,1.52
2023-10-28T21:14:43.472Z,1.25
2023-10-28T21:17:10.726Z,1.10
2023-10-28T21:19:37.736Z,0.93
2023-10-28T21:22:04.655Z,0.90
2023-10-28T21:24:31.521Z,1.40
2023-10-28T21:26:58.389Z,1.00
2023-10-28T21:29:26.931Z,1.23
2023-10-28T21:31:54.673Z,1.10
2023-10-28T21:34:23.790Z,1.15
2023-10-28T21:36:50.688Z,1.10
2023-10-28T21:39:17.840Z,1.15
2023-10-28T21:41:44.939Z,1.02
2023-10-28T21:44:11.831Z,0.95
2023-10-28T21:46:38.775Z,1.17
2023-10-28T21:49:07.221Z,1.08
2023-10-28T21:51:34.147Z,0.90
2023-10-28T21:54:01.475Z,1.30
2023-10-28T21:56:28.359Z,1.60
2023-10-28T21:58:55.245Z,1.05
2023-10-28T22:01:23.834Z,0.95
2023-10-28T22:03:52.388Z,1.05
2023-10-28T22:06:20.378Z,1.08
2023-10-28T22:08:47.395Z,1.05
2023-10-28T22:11:14.356Z,1.50
2023-10-28T22:13:41.432Z,1.33
2023-10-28T22:16:08.995Z,1.00
2023-10-28T22:18:35.952Z,1.60
2023-10-28T22:21:02.853Z,0.95
2023-10-28T22:23:29.916Z,1.60
2023-10-28T22:25:56.853Z,0.93
2023-10-28T22:28:23.710Z,1.02
2023-10-28T22:30:50.633Z,1.20
2023-10-28T22:33:17.715Z,1.05
2023-10-28T22:35:46.888Z,0.88
2023-10-28T22:38:15.292Z,1.67
2023-10-28T22:40:43.425Z,1.00
2023-10-28T22:43:11.328Z,0.88
2023-10-28T22:45:38.564Z,1.27
2023-10-28T22:48:06.548Z,1.25
2023-10-28T22:50:33.616Z,1.17
2023-10-28T22:53:00.595Z,1.27
2023-10-28T22:55:27.620Z,0.82
2023-10-28T22:57:54.581Z,1.15
2023-10-28T23:00:21.560Z,0.93
2023-10-28T23:02:48.539Z,2.22
2023-10-28T23:05:15.493Z,1.10
2023-10-28T23:07:42.681Z,1.33
2023-10-28T23:10:11.695Z,1.00
2023-10-28T23:12:38.785Z,1.10
2023-10-28T23:15:06.840Z,1.40
2023-10-28T23:17:34.162Z,1.33
2023-10-28T23:20:01.817Z,1.70
2023-10-28T23:22:28.659Z,2.08
2023-10-28T23:24:55.541Z,2.00
2023-10-28T23:27:23.903Z,1.65
2023-10-28T23:29:50.949Z,1.90
2023-10-28T23:32:17.968Z,1.80
2023-10-28T23:34:44.866Z,1.48
2023-10-28T23:37:13.338Z,2.58
2023-10-28T23:39:40.170Z,2.05
2023-10-28T23:42:07.417Z,1.83
2023-10-28T23:44:34.380Z,1.52
2023-10-28T23:47:01.234Z,1.60
2023-10-28T23:49:28.061Z,1.45
2023-10-28T23:51:55.657Z,1.60
2023-10-28T23:54:22.850Z,2.25
2023-10-28T23:56:49.805Z,1.40
2023-10-28T23:59:16.739Z,1.73
